sensor_id;sensor_type;location;lat;lon;timestamp;temperature;humidity
10192;DHT22;17580;50.850;4.504;2022-10-13T00:02:15;13.20;99.90
10192;DHT22;17580;50.850;4.504;2022-10-13T00:04:42;13.20;99.90
10192;DHT22;17580;50.850;4.504;2022-10-13T00:07:09;13.10;99.90
10192;DHT22;17580;50.850;4.504;2022-10-13T00:09:36;13.10;99.90
10192;DHT22;17580;50.850;4.504;2022-10-13T00:12:03;13.10;99.90
10192;DHT22;17580;50.850;4.504;2022-10-13T00:14:31;13.10;99.90
10192;DHT22;17580;50.850;4.504;2022-10-13T00:16:58;13.10;99.90
10192;DHT22;17580;50.850;4.504;2022-10-13T00:19:25;13.10;99.90
10192;DHT22;17580;50.850;4.504;2022-10-13T00:21:52;13.10;99.90
10192;DHT22;17580;50.850;4.504;2022-10-13T00:24:19;13.10;99.90
10192;DHT22;17580;50.850;4.504;2022-10-13T00:26:48;13.10;99.90
10192;DHT22;17580;50.850;4.504;2022-10-13T00:29:16;13.10;99.90
10192;DHT22;17580;50.850;4.504;2022-10-13T00:31:45;13.10;99.90
10192;DHT22;17580;50.850;4.504;2022-10-13T00:34:12;13.10;99.90
10192;DHT22;17580;50.850;4.504;2022-10-13T00:36:39;13.10;99.90
10192;DHT22;17580;50.850;4.504;2022-10-13T00:39:05;13.10;99.90
10192;DHT22;17580;50.850;4.504;2022-10-13T00:41:32;13.10;99.90
10192;DHT22;17580;50.850;4.504;2022-10-13T00:44:01;13.10;99.90
10192;DHT22;17580;50.850;4.504;2022-10-13T00:46:29;13.10;99.90
10192;DHT22;17580;50.850;4.504;2022-10-13T00:49:00;13.10;99.90
10192;DHT22;17580;50.850;4.504;2022-10-13T00:51:31;13.10;99.90
10192;DHT22;17580;50.850;4.504;2022-10-13T00:54:00;13.10;99.90
10192;DHT22;17580;50.850;4.504;2022-10-13T00:56:28;13.10;99.90
10192;DHT22;17580;50.850;4.504;2022-10-13T00:58:55;13.10;99.90
10192;DHT22;17580;50.850;4.504;2022-10-13T01:01:23;13.10;99.90
10192;DHT22;17580;50.850;4.504;2022-10-13T01:03:50;13.10;99.90
10192;DHT22;17580;50.850;4.504;2022-10-13T01:06:19;13.10;99.90
10192;DHT22;17580;50.850;4.504;2022-10-13T01:08:46;13.10;99.90
10192;DHT22;17580;50.850;4.504;2022-10-13T01:11:27;13.10;99.90
10192;DHT22;17580;50.850;4.504;2022-10-13T01:14:06;13.20;99.90
10192;DHT22;17580;50.850;4.504;2022-10-13T01:16:41;13.20;99.90
10192;DHT22;17580;50.850;4.504;2022-10-13T01:22:24;13.20;99.90
10192;DHT22;17580;50.850;4.504;2022-10-13T01:24:55;13.20;99.90
10192;DHT22;17580;50.850;4.504;2022-10-13T01:27:51;13.10;99.90
10192;DHT22;17580;50.850;4.504;2022-10-13T01:30:22;13.20;99.90
10192;DHT22;17580;50.850;4.504;2022-10-13T01:33:02;13.20;99.90
10192;DHT22;17580;50.850;4.504;2022-10-13T01:35:38;13.10;99.90
10192;DHT22;17580;50.850;4.504;2022-10-13T01:38:10;13.10;99.90
10192;DHT22;17580;50.850;4.504;2022-10-13T01:40:45;13.10;99.90
10192;DHT22;17580;50.850;4.504;2022-10-13T01:43:18;13.10;99.90
10192;DHT22;17580;50.850;4.504;2022-10-13T01:45:53;13.10;99.90
10192;DHT22;17580;50.850;4.504;2022-10-13T01:48:21;13.10;99.90
10192;DHT22;17580;50.850;4.504;2022-10-13T01:50:49;13.10;99.90
10192;DHT22;17580;50.850;4.504;2022-10-13T01:53:18;13.10;99.90
10192;DHT22;17580;50.850;4.504;2022-10-13T01:55:50;13.20;99.90
10192;DHT22;17580;50.850;4.504;2022-10-13T01:58:17;13.20;99.90
10192;DHT22;17580;50.850;4.504;2022-10-13T02:00:55;13.10;99.90
10192;DHT22;17580;50.850;4.504;2022-10-13T02:03:32;13.10;99.90
10192;DHT22;17580;50.850;4.504;2022-10-13T02:06:04;13.10;99.90
10192;DHT22;17580;50.850;4.504;2022-10-13T02:08:38;13.10;99.90
10192;DHT22;17580;50.850;4.504;2022-10-13T02:11:12;13.10;99.90
10192;DHT22;17580;50.850;4.504;2022-10-13T02:13:42;13.10;99.90
10192;DHT22;17580;50.850;4.504;2022-10-13T02:16:12;13.00;99.90
10192;DHT22;17580;50.850;4.504;2022-10-13T02:18:41;13.10;99.90
10192;DHT22;17580;50.850;4.504;2022-10-13T02:21:08;13.10;99.90
10192;DHT22;17580;50.850;4.504;2022-10-13T02:23:35;13.00;99.90
10192;DHT22;17580;50.850;4.504;2022-10-13T02:26:02;13.00;99.90
10192;DHT22;17580;50.850;4.504;2022-10-13T02:28:29;12.90;99.90
10192;DHT22;17580;50.850;4.504;2022-10-13T02:30:57;12.90;99.90
10192;DHT22;17580;50.850;4.504;2022-10-13T02:33:25;12.90;99.90
10192;DHT22;17580;50.850;4.504;2022-10-13T02:35:52;12.90;99.90
10192;DHT22;17580;50.850;4.504;2022-10-13T02:38:19;13.00;99.90
10192;DHT22;17580;50.850;4.504;2022-10-13T02:40:46;12.90;99.90
10192;DHT22;17580;50.850;4.504;2022-10-13T02:43:13;12.90;99.90
10192;DHT22;17580;50.850;4.504;2022-10-13T02:45:39;12.90;99.90
10192;DHT22;17580;50.850;4.504;2022-10-13T02:48:06;12.90;99.90
10192;DHT22;17580;50.850;4.504;2022-10-13T02:50:35;12.90;99.90
10192;DHT22;17580;50.850;4.504;2022-10-13T02:53:02;12.80;99.90
10192;DHT22;17580;50.850;4.504;2022-10-13T02:55:29;12.80;99.90
10192;DHT22;17580;50.850;4.504;2022-10-13T02:57:56;12.80;99.90
10192;DHT22;17580;50.850;4.504;2022-10-13T03:00:23;12.80;99.90
10192;DHT22;17580;50.850;4.504;2022-10-13T03:02:50;12.80;99.90
10192;DHT22;17580;50.850;4.504;2022-10-13T03:05:17;12.70;99.90
10192;DHT22;17580;50.850;4.504;2022-10-13T03:07:45;12.70;99.90
10192;DHT22;17580;50.850;4.504;2022-10-13T03:10:12;12.70;99.90
10192;DHT22;17580;50.850;4.504;2022-10-13T03:12:39;12.70;99.90
10192;DHT22;17580;50.850;4.504;2022-10-13T03:15:07;12.70;99.90
10192;DHT22;17580;50.850;4.504;2022-10-13T03:17:34;12.80;99.90
10192;DHT22;17580;50.850;4.504;2022-10-13T03:20:01;12.80;99.90
10192;DHT22;17580;50.850;4.504;2022-10-13T03:22:30;12.80;99.90
10192;DHT22;17580;50.850;4.504;2022-10-13T03:24:59;12.80;99.90
10192;DHT22;17580;50.850;4.504;2022-10-13T03:27:26;12.80;99.90
10192;DHT22;17580;50.850;4.504;2022-10-13T03:29:53;12.80;99.90
10192;DHT22;17580;50.850;4.504;2022-10-13T03:32:20;12.80;99.90
10192;DHT22;17580;50.850;4.504;2022-10-13T03:34:46;12.80;99.90
10192;DHT22;17580;50.850;4.504;2022-10-13T03:37:13;12.80;99.90
10192;DHT22;17580;50.850;4.504;2022-10-13T03:39:40;12.80;99.90
10192;DHT22;17580;50.850;4.504;2022-10-13T03:42:09;12.80;99.90
10192;DHT22;17580;50.850;4.504;2022-10-13T03:44:36;12.90;99.90
10192;DHT22;17580;50.850;4.504;2022-10-13T03:47:03;12.90;99.90
10192;DHT22;17580;50.850;4.504;2022-10-13T03:49:30;12.90;99.90
10192;DHT22;17580;50.850;4.504;2022-10-13T03:51:57;12.90;99.90
10192;DHT22;17580;50.850;4.504;2022-10-13T03:54:24;12.90;99.90
10192;DHT22;17580;50.850;4.504;2022-10-13T03:56:51;12.90;99.90
10192;DHT22;17580;50.850;4.504;2022-10-13T03:59:19;12.80;99.90
10192;DHT22;17580;50.850;4.504;2022-10-13T04:01:46;12.80;99.90
10192;DHT22;17580;50.850;4.504;2022-10-13T04:04:13;12.80;99.90
10192;DHT22;17580;50.850;4.504;2022-10-13T04:06:40;12.80;99.90
10192;DHT22;17580;50.850;4.504;2022-10-13T04:09:08;12.80;99.90
10192;DHT22;17580;50.850;4.504;2022-10-13T04:11:35;12.80;99.90
10192;DHT22;17580;50.850;4.504;2022-10-13T04:14:02;12.80;99.90
10192;DHT22;17580;50.850;4.504;2022-10-13T04:16:30;12.80;99.90
10192;DHT22;17580;50.850;4.504;2022-10-13T04:18:59;12.80;99.90
10192;DHT22;17580;50.850;4.504;2022-10-13T04:21:27;12.80;99.90
10192;DHT22;17580;50.850;4.504;2022-10-13T04:23:55;12.80;99.90
10192;DHT22;17580;50.850;4.504;2022-10-13T04:26:25;12.80;99.90
10192;DHT22;17580;50.850;4.504;2022-10-13T04:28:53;12.80;99.90
10192;DHT22;17580;50.850;4.504;2022-10-13T04:31:20;12.80;99.90
10192;DHT22;17580;50.850;4.504;2022-10-13T04:33:49;12.80;99.90
10192;DHT22;17580;50.850;4.504;2022-10-13T04:36:17;12.80;99.90
10192;DHT22;17580;50.850;4.504;2022-10-13T04:38:44;12.70;99.90
10192;DHT22;17580;50.850;4.504;2022-10-13T04:41:12;12.80;99.90
10192;DHT22;17580;50.850;4.504;2022-10-13T04:43:39;12.80;99.90
10192;DHT22;17580;50.850;4.504;2022-10-13T04:46:09;12.70;99.90
10192;DHT22;17580;50.850;4.504;2022-10-13T04:48:36;12.80;99.90
10192;DHT22;17580;50.850;4.504;2022-10-13T04:51:06;12.80;99.90
10192;DHT22;17580;50.850;4.504;2022-10-13T04:53:33;12.70;99.90
10192;DHT22;17580;50.850;4.504;2022-10-13T04:56:03;12.70;99.90
10192;DHT22;17580;50.850;4.504;2022-10-13T04:58:30;12.70;99.90
10192;DHT22;17580;50.850;4.504;2022-10-13T05:00:57;12.80;99.90
10192;DHT22;17580;50.850;4.504;2022-10-13T05:03:24;12.80;99.90
10192;DHT22;17580;50.850;4.504;2022-10-13T05:05:52;12.70;99.90
10192;DHT22;17580;50.850;4.504;2022-10-13T05:08:20;12.80;99.90
10192;DHT22;17580;50.850;4.504;2022-10-13T05:10:54;12.90;99.90
10192;DHT22;17580;50.850;4.504;2022-10-13T05:13:22;12.90;99.90
10192;DHT22;17580;50.850;4.504;2022-10-13T05:15:49;12.90;99.90
10192;DHT22;17580;50.850;4.504;2022-10-13T05:18:16;12.90;99.90
10192;DHT22;17580;50.850;4.504;2022-10-13T05:20:43;12.90;99.90
10192;DHT22;17580;50.850;4.504;2022-10-13T05:23:11;12.90;99.90
10192;DHT22;17580;50.850;4.504;2022-10-13T05:25:39;12.90;99.90
10192;DHT22;17580;50.850;4.504;2022-10-13T05:28:07;12.90;99.90
10192;DHT22;17580;50.850;4.504;2022-10-13T05:30:34;12.90;99.90
10192;DHT22;17580;50.850;4.504;2022-10-13T05:33:01;12.90;99.90
10192;DHT22;17580;50.850;4.504;2022-10-13T05:35:28;12.80;99.90
10192;DHT22;17580;50.850;4.504;2022-10-13T05:37:55;12.80;99.90
10192;DHT22;17580;50.850;4.504;2022-10-13T05:40:22;12.80;99.90
10192;DHT22;17580;50.850;4.504;2022-10-13T05:42:50;12.90;99.90
10192;DHT22;17580;50.850;4.504;2022-10-13T05:45:18;12.80;99.90
10192;DHT22;17580;50.850;4.504;2022-10-13T05:47:47;12.90;99.90
10192;DHT22;17580;50.850;4.504;2022-10-13T05:50:14;12.90;99.90
10192;DHT22;17580;50.850;4.504;2022-10-13T05:52:41;12.80;99.90
10192;DHT22;17580;50.850;4.504;2022-10-13T05:55:10;12.80;99.90
10192;DHT22;17580;50.850;4.504;2022-10-13T05:57:41;12.80;99.90
10192;DHT22;17580;50.850;4.504;2022-10-13T06:00:14;12.80;99.90
10192;DHT22;17580;50.850;4.504;2022-10-13T06:02:46;12.80;99.90
10192;DHT22;17580;50.850;4.504;2022-10-13T06:05:17;12.80;99.90
10192;DHT22;17580;50.850;4.504;2022-10-13T06:07:45;12.90;99.90
10192;DHT22;17580;50.850;4.504;2022-10-13T06:10:13;12.80;99.90
10192;DHT22;17580;50.850;4.504;2022-10-13T06:12:40;12.80;99.90
10192;DHT22;17580;50.850;4.504;2022-10-13T06:15:08;12.80;99.90
10192;DHT22;17580;50.850;4.504;2022-10-13T06:17:37;12.90;99.90
10192;DHT22;17580;50.850;4.504;2022-10-13T06:20:05;12.90;99.90
10192;DHT22;17580;50.850;4.504;2022-10-13T06:22:33;12.90;99.90
10192;DHT22;17580;50.850;4.504;2022-10-13T06:25:01;12.90;99.90
10192;DHT22;17580;50.850;4.504;2022-10-13T06:27:28;12.90;99.90
10192;DHT22;17580;50.850;4.504;2022-10-13T06:29:56;12.90;99.90
10192;DHT22;17580;50.850;4.504;2022-10-13T06:32:23;12.90;99.90
10192;DHT22;17580;50.850;4.504;2022-10-13T06:34:51;12.90;99.90
10192;DHT22;17580;50.850;4.504;2022-10-13T06:37:18;12.90;99.90
10192;DHT22;17580;50.850;4.504;2022-10-13T06:39:45;12.90;99.90
10192;DHT22;17580;50.850;4.504;2022-10-13T06:42:12;13.00;99.90
10192;DHT22;17580;50.850;4.504;2022-10-13T06:44:39;13.00;99.90
10192;DHT22;17580;50.850;4.504;2022-10-13T06:47:07;13.10;99.90
10192;DHT22;17580;50.850;4.504;2022-10-13T06:49:33;13.10;99.90
10192;DHT22;17580;50.850;4.504;2022-10-13T06:52:02;13.10;99.90
10192;DHT22;17580;50.850;4.504;2022-10-13T06:54:29;13.10;99.90
10192;DHT22;17580;50.850;4.504;2022-10-13T06:56:56;13.10;99.90
10192;DHT22;17580;50.850;4.504;2022-10-13T06:59:23;13.10;99.90
10192;DHT22;17580;50.850;4.504;2022-10-13T07:01:51;13.20;99.90
10192;DHT22;17580;50.850;4.504;2022-10-13T07:04:18;13.20;99.90
10192;DHT22;17580;50.850;4.504;2022-10-13T07:06:45;13.20;99.90
10192;DHT22;17580;50.850;4.504;2022-10-13T07:09:13;13.20;99.90
10192;DHT22;17580;50.850;4.504;2022-10-13T07:11:43;13.20;99.90
10192;DHT22;17580;50.850;4.504;2022-10-13T07:14:10;13.20;99.90
10192;DHT22;17580;50.850;4.504;2022-10-13T07:16:37;13.20;99.90
10192;DHT22;17580;50.850;4.504;2022-10-13T07:19:04;13.30;99.90
10192;DHT22;17580;50.850;4.504;2022-10-13T07:21:31;13.30;99.90
10192;DHT22;17580;50.850;4.504;2022-10-13T07:23:59;13.20;99.90
10192;DHT22;17580;50.850;4.504;2022-10-13T07:26:28;13.30;99.90
10192;DHT22;17580;50.850;4.504;2022-10-13T07:28:56;13.30;99.90
10192;DHT22;17580;50.850;4.504;2022-10-13T07:31:23;13.30;99.90
10192;DHT22;17580;50.850;4.504;2022-10-13T07:33:51;13.40;99.90
10192;DHT22;17580;50.850;4.504;2022-10-13T07:36:19;13.40;99.90
10192;DHT22;17580;50.850;4.504;2022-10-13T07:38:46;13.40;99.90
10192;DHT22;17580;50.850;4.504;2022-10-13T07:41:13;13.40;99.90
10192;DHT22;17580;50.850;4.504;2022-10-13T07:43:42;13.30;99.90
10192;DHT22;17580;50.850;4.504;2022-10-13T07:46:09;13.40;99.90
10192;DHT22;17580;50.850;4.504;2022-10-13T07:48:37;13.30;99.90
10192;DHT22;17580;50.850;4.504;2022-10-13T07:51:06;13.30;99.90
10192;DHT22;17580;50.850;4.504;2022-10-13T07:53:33;13.30;99.90
10192;DHT22;17580;50.850;4.504;2022-10-13T07:56:01;13.30;99.90
10192;DHT22;17580;50.850;4.504;2022-10-13T07:58:28;13.30;99.90
10192;DHT22;17580;50.850;4.504;2022-10-13T08:00:57;13.30;99.90
10192;DHT22;17580;50.850;4.504;2022-10-13T08:03:24;13.30;99.90
10192;DHT22;17580;50.850;4.504;2022-10-13T08:05:51;13.30;99.90
10192;DHT22;17580;50.850;4.504;2022-10-13T08:08:19;13.30;99.90
10192;DHT22;17580;50.850;4.504;2022-10-13T08:10:46;13.30;99.90
10192;DHT22;17580;50.850;4.504;2022-10-13T08:13:13;13.30;99.90
10192;DHT22;17580;50.850;4.504;2022-10-13T08:15:40;13.40;99.90
10192;DHT22;17580;50.850;4.504;2022-10-13T08:18:09;13.40;99.90
10192;DHT22;17580;50.850;4.504;2022-10-13T08:20:38;13.50;99.90
10192;DHT22;17580;50.850;4.504;2022-10-13T08:23:05;13.50;99.90
10192;DHT22;17580;50.850;4.504;2022-10-13T08:25:35;13.50;99.90
10192;DHT22;17580;50.850;4.504;2022-10-13T08:28:03;13.50;99.90
10192;DHT22;17580;50.850;4.504;2022-10-13T08:30:30;13.50;99.90
10192;DHT22;17580;50.850;4.504;2022-10-13T08:32:57;13.60;99.90
10192;DHT22;17580;50.850;4.504;2022-10-13T08:35:26;13.60;99.90
10192;DHT22;17580;50.850;4.504;2022-10-13T08:37:52;13.60;99.90
10192;DHT22;17580;50.850;4.504;2022-10-13T08:40:20;13.60;99.90
10192;DHT22;17580;50.850;4.504;2022-10-13T08:42:48;13.70;99.90
10192;DHT22;17580;50.850;4.504;2022-10-13T08:45:18;13.80;99.90
10192;DHT22;17580;50.850;4.504;2022-10-13T08:47:48;14.00;99.90
10192;DHT22;17580;50.850;4.504;2022-10-13T08:50:19;14.10;99.90
10192;DHT22;17580;50.850;4.504;2022-10-13T08:52:52;14.10;99.90
10192;DHT22;17580;50.850;4.504;2022-10-13T08:55:23;14.10;99.90
10192;DHT22;17580;50.850;4.504;2022-10-13T08:57:52;14.20;99.90
10192;DHT22;17580;50.850;4.504;2022-10-13T09:00:19;14.20;99.90
10192;DHT22;17580;50.850;4.504;2022-10-13T09:02:46;14.20;99.90
10192;DHT22;17580;50.850;4.504;2022-10-13T09:05:21;14.20;99.90
10192;DHT22;17580;50.850;4.504;2022-10-13T09:07:52;14.20;99.90
10192;DHT22;17580;50.850;4.504;2022-10-13T09:10:21;14.10;99.90
10192;DHT22;17580;50.850;4.504;2022-10-13T09:12:48;14.10;99.90
10192;DHT22;17580;50.850;4.504;2022-10-13T09:15:16;14.10;99.90
10192;DHT22;17580;50.850;4.504;2022-10-13T09:17:45;14.10;99.90
10192;DHT22;17580;50.850;4.504;2022-10-13T09:20:33;14.20;99.90
10192;DHT22;17580;50.850;4.504;2022-10-13T09:23:01;14.30;99.90
10192;DHT22;17580;50.850;4.504;2022-10-13T09:25:29;14.40;99.90
10192;DHT22;17580;50.850;4.504;2022-10-13T09:28:09;14.30;99.90
10192;DHT22;17580;50.850;4.504;2022-10-13T09:30:38;14.40;99.90
10192;DHT22;17580;50.850;4.504;2022-10-13T09:33:23;14.40;99.90
10192;DHT22;17580;50.850;4.504;2022-10-13T09:39:06;14.40;99.90
10192;DHT22;17580;50.850;4.504;2022-10-13T09:41:34;14.30;99.90
10192;DHT22;17580;50.850;4.504;2022-10-13T09:44:10;14.30;99.90
10192;DHT22;17580;50.850;4.504;2022-10-13T09:46:44;14.30;99.90
10192;DHT22;17580;50.850;4.504;2022-10-13T09:49:27;14.40;99.90
10192;DHT22;17580;50.850;4.504;2022-10-13T09:51:59;14.50;99.90
10192;DHT22;17580;50.850;4.504;2022-10-13T09:54:36;14.50;99.90
10192;DHT22;17580;50.850;4.504;2022-10-13T09:57:10;14.60;99.90
10192;DHT22;17580;50.850;4.504;2022-10-13T09:59:43;14.60;99.90
10192;DHT22;17580;50.850;4.504;2022-10-13T10:02:19;14.70;99.90
10192;DHT22;17580;50.850;4.504;2022-10-13T10:04:46;14.60;99.90
10192;DHT22;17580;50.850;4.504;2022-10-13T10:07:17;14.70;99.90
10192;DHT22;17580;50.850;4.504;2022-10-13T10:09:50;14.70;99.90
10192;DHT22;17580;50.850;4.504;2022-10-13T10:12:21;14.80;99.90
10192;DHT22;17580;50.850;4.504;2022-10-13T10:14:49;15.00;99.90
10192;DHT22;17580;50.850;4.504;2022-10-13T10:17:21;15.10;99.90
10192;DHT22;17580;50.850;4.504;2022-10-13T10:19:57;15.10;99.90
10192;DHT22;17580;50.850;4.504;2022-10-13T10:22:35;15.20;99.90
10192;DHT22;17580;50.850;4.504;2022-10-13T10:25:17;15.20;99.90
10192;DHT22;17580;50.850;4.504;2022-10-13T10:27:51;15.20;99.90
10192;DHT22;17580;50.850;4.504;2022-10-13T10:30:21;15.20;99.90
10192;DHT22;17580;50.850;4.504;2022-10-13T10:32:52;15.10;99.90
10192;DHT22;17580;50.850;4.504;2022-10-13T10:35:26;15.00;99.90
10192;DHT22;17580;50.850;4.504;2022-10-13T10:38:11;14.90;99.90
10192;DHT22;17580;50.850;4.504;2022-10-13T10:40:49;14.90;99.90
10192;DHT22;17580;50.850;4.504;2022-10-13T10:43:36;14.80;99.90
10192;DHT22;17580;50.850;4.504;2022-10-13T10:46:13;14.60;99.90
10192;DHT22;17580;50.850;4.504;2022-10-13T10:48:44;14.60;99.90
10192;DHT22;17580;50.850;4.504;2022-10-13T10:51:12;14.60;99.90
10192;DHT22;17580;50.850;4.504;2022-10-13T10:53:49;14.50;99.90
10192;DHT22;17580;50.850;4.504;2022-10-13T10:56:27;14.60;99.90
10192;DHT22;17580;50.850;4.504;2022-10-13T10:59:04;14.60;99.90
10192;DHT22;17580;50.850;4.504;2022-10-13T11:01:39;14.50;99.90
10192;DHT22;17580;50.850;4.504;2022-10-13T11:10:30;14.40;99.90
10192;DHT22;17580;50.850;4.504;2022-10-13T11:13:25;14.40;99.90
10192;DHT22;17580;50.850;4.504;2022-10-13T11:15:52;14.50;99.90
10192;DHT22;17580;50.850;4.504;2022-10-13T11:18:54;14.40;99.90
10192;DHT22;17580;50.850;4.504;2022-10-13T11:21:23;14.30;99.90
10192;DHT22;17580;50.850;4.504;2022-10-13T11:23:50;14.30;99.90
10192;DHT22;17580;50.850;4.504;2022-10-13T11:26:23;14.30;99.90
10192;DHT22;17580;50.850;4.504;2022-10-13T11:28:55;14.30;99.90
10192;DHT22;17580;50.850;4.504;2022-10-13T11:31:24;14.30;99.90
10192;DHT22;17580;50.850;4.504;2022-10-13T11:33:54;14.20;99.90
10192;DHT22;17580;50.850;4.504;2022-10-13T11:36:53;14.20;99.90
10192;DHT22;17580;50.850;4.504;2022-10-13T11:39:39;14.20;99.90
10192;DHT22;17580;50.850;4.504;2022-10-13T11:45:13;14.10;99.90
10192;DHT22;17580;50.850;4.504;2022-10-13T11:48:02;14.10;99.90
10192;DHT22;17580;50.850;4.504;2022-10-13T11:50:37;14.20;99.90
10192;DHT22;17580;50.850;4.504;2022-10-13T11:53:13;14.30;99.90
10192;DHT22;17580;50.850;4.504;2022-10-13T11:55:46;14.40;99.90
10192;DHT22;17580;50.850;4.504;2022-10-13T11:58:16;14.50;99.90
10192;DHT22;17580;50.850;4.504;2022-10-13T12:00:55;14.60;99.90
10192;DHT22;17580;50.850;4.504;2022-10-13T12:03:26;14.80;99.90
10192;DHT22;17580;50.850;4.504;2022-10-13T12:05:56;14.90;99.90
10192;DHT22;17580;50.850;4.504;2022-10-13T12:08:24;15.00;99.90
10192;DHT22;17580;50.850;4.504;2022-10-13T12:10:53;15.20;99.90
10192;DHT22;17580;50.850;4.504;2022-10-13T12:13:24;15.50;99.90
10192;DHT22;17580;50.850;4.504;2022-10-13T12:15:58;15.70;99.90
10192;DHT22;17580;50.850;4.504;2022-10-13T12:18:29;15.80;99.90
10192;DHT22;17580;50.850;4.504;2022-10-13T12:21:00;15.70;99.90
10192;DHT22;17580;50.850;4.504;2022-10-13T12:23:28;15.50;99.90
10192;DHT22;17580;50.850;4.504;2022-10-13T12:25:57;15.30;99.90
10192;DHT22;17580;50.850;4.504;2022-10-13T12:28:27;15.30;99.90
10192;DHT22;17580;50.850;4.504;2022-10-13T12:30:57;15.30;99.90
10192;DHT22;17580;50.850;4.504;2022-10-13T12:33:30;15.30;99.90
10192;DHT22;17580;50.850;4.504;2022-10-13T12:36:11;15.40;99.90
10192;DHT22;17580;50.850;4.504;2022-10-13T12:38:44;15.40;99.90
10192;DHT22;17580;50.850;4.504;2022-10-13T12:41:16;15.50;99.90
10192;DHT22;17580;50.850;4.504;2022-10-13T12:43:44;15.50;99.90
10192;DHT22;17580;50.850;4.504;2022-10-13T12:46:19;15.50;99.90
10192;DHT22;17580;50.850;4.504;2022-10-13T12:49:03;15.50;99.90
10192;DHT22;17580;50.850;4.504;2022-10-13T12:51:30;15.40;99.90
10192;DHT22;17580;50.850;4.504;2022-10-13T12:53:58;15.30;99.90
10192;DHT22;17580;50.850;4.504;2022-10-13T12:56:29;15.30;99.90
10192;DHT22;17580;50.850;4.504;2022-10-13T12:58:57;15.30;99.90
10192;DHT22;17580;50.850;4.504;2022-10-13T13:01:29;15.20;99.90
10192;DHT22;17580;50.850;4.504;2022-10-13T13:03:58;15.30;99.90
10192;DHT22;17580;50.850;4.504;2022-10-13T13:06:36;15.40;99.90
10192;DHT22;17580;50.850;4.504;2022-10-13T13:09:19;15.40;99.90
10192;DHT22;17580;50.850;4.504;2022-10-13T13:11:47;15.40;99.90
10192;DHT22;17580;50.850;4.504;2022-10-13T13:14:35;15.30;99.90
10192;DHT22;17580;50.850;4.504;2022-10-13T13:17:06;15.20;99.90
10192;DHT22;17580;50.850;4.504;2022-10-13T13:19:35;15.20;99.90
10192;DHT22;17580;50.850;4.504;2022-10-13T13:22:03;15.10;99.90
10192;DHT22;17580;50.850;4.504;2022-10-13T13:24:30;15.10;99.90
10192;DHT22;17580;50.850;4.504;2022-10-13T13:26:57;15.00;99.90
10192;DHT22;17580;50.850;4.504;2022-10-13T13:29:24;15.00;99.90
10192;DHT22;17580;50.850;4.504;2022-10-13T13:31:51;14.90;99.90
10192;DHT22;17580;50.850;4.504;2022-10-13T13:34:19;14.80;99.90
10192;DHT22;17580;50.850;4.504;2022-10-13T13:36:47;14.80;99.90
10192;DHT22;17580;50.850;4.504;2022-10-13T13:39:15;14.90;99.90
10192;DHT22;17580;50.850;4.504;2022-10-13T13:41:43;14.80;99.90
10192;DHT22;17580;50.850;4.504;2022-10-13T13:44:11;14.80;99.90
10192;DHT22;17580;50.850;4.504;2022-10-13T13:46:38;14.70;99.90
10192;DHT22;17580;50.850;4.504;2022-10-13T13:49:07;14.60;99.90
10192;DHT22;17580;50.850;4.504;2022-10-13T13:51:36;14.60;99.90
10192;DHT22;17580;50.850;4.504;2022-10-13T13:54:03;14.50;99.90
10192;DHT22;17580;50.850;4.504;2022-10-13T13:56:30;14.50;99.90
10192;DHT22;17580;50.850;4.504;2022-10-13T13:58:57;14.50;99.90
10192;DHT22;17580;50.850;4.504;2022-10-13T14:01:24;14.50;99.90
10192;DHT22;17580;50.850;4.504;2022-10-13T14:03:51;14.50;99.90
10192;DHT22;17580;50.850;4.504;2022-10-13T14:06:19;14.50;99.90
10192;DHT22;17580;50.850;4.504;2022-10-13T14:08:49;14.50;99.90
10192;DHT22;17580;50.850;4.504;2022-10-13T14:11:16;14.60;99.90
10192;DHT22;17580;50.850;4.504;2022-10-13T14:13:43;14.60;99.90
10192;DHT22;17580;50.850;4.504;2022-10-13T14:16:14;14.60;99.90
10192;DHT22;17580;50.850;4.504;2022-10-13T14:18:42;14.50;99.90
10192;DHT22;17580;50.850;4.504;2022-10-13T14:21:09;14.60;99.90
10192;DHT22;17580;50.850;4.504;2022-10-13T14:23:37;14.60;99.90
10192;DHT22;17580;50.850;4.504;2022-10-13T14:26:06;14.60;99.90
10192;DHT22;17580;50.850;4.504;2022-10-13T14:28:34;14.60;99.90
10192;DHT22;17580;50.850;4.504;2022-10-13T14:31:04;14.50;99.90
10192;DHT22;17580;50.850;4.504;2022-10-13T14:33:32;14.60;99.90
10192;DHT22;17580;50.850;4.504;2022-10-13T14:35:59;14.60;99.90
10192;DHT22;17580;50.850;4.504;2022-10-13T14:38:26;14.60;99.90
10192;DHT22;17580;50.850;4.504;2022-10-13T14:40:57;14.60;99.90
10192;DHT22;17580;50.850;4.504;2022-10-13T14:43:27;14.70;99.90
10192;DHT22;17580;50.850;4.504;2022-10-13T14:45:54;14.70;99.90
10192;DHT22;17580;50.850;4.504;2022-10-13T14:48:21;14.70;99.90
10192;DHT22;17580;50.850;4.504;2022-10-13T14:50:48;14.60;99.90
10192;DHT22;17580;50.850;4.504;2022-10-13T14:53:15;14.60;99.90
10192;DHT22;17580;50.850;4.504;2022-10-13T14:55:43;14.60;99.90
10192;DHT22;17580;50.850;4.504;2022-10-13T14:58:11;14.70;99.90
10192;DHT22;17580;50.850;4.504;2022-10-13T15:00:41;14.70;99.90
10192;DHT22;17580;50.850;4.504;2022-10-13T15:03:10;14.60;99.90
10192;DHT22;17580;50.850;4.504;2022-10-13T15:05:37;14.60;99.90
10192;DHT22;17580;50.850;4.504;2022-10-13T15:08:04;14.60;99.90
10192;DHT22;17580;50.850;4.504;2022-10-13T15:10:31;14.60;99.90
10192;DHT22;17580;50.850;4.504;2022-10-13T15:12:58;14.40;99.90
10192;DHT22;17580;50.850;4.504;2022-10-13T15:15:25;14.40;99.90
10192;DHT22;17580;50.850;4.504;2022-10-13T15:17:53;14.40;99.90
10192;DHT22;17580;50.850;4.504;2022-10-13T15:20:20;14.40;99.90
10192;DHT22;17580;50.850;4.504;2022-10-13T15:22:47;14.40;99.90
10192;DHT22;17580;50.850;4.504;2022-10-13T15:25:14;14.40;99.90
10192;DHT22;17580;50.850;4.504;2022-10-13T15:27:41;14.40;99.90
10192;DHT22;17580;50.850;4.504;2022-10-13T15:30:09;14.50;99.90
10192;DHT22;17580;50.850;4.504;2022-10-13T15:32:36;14.50;99.90
10192;DHT22;17580;50.850;4.504;2022-10-13T15:35:05;14.50;99.90
10192;DHT22;17580;50.850;4.504;2022-10-13T15:37:32;14.40;99.90
10192;DHT22;17580;50.850;4.504;2022-10-13T15:39:59;14.40;99.90
10192;DHT22;17580;50.850;4.504;2022-10-13T15:42:26;14.40;99.90
10192;DHT22;17580;50.850;4.504;2022-10-13T15:44:53;14.40;99.90
10192;DHT22;17580;50.850;4.504;2022-10-13T15:47:20;14.30;99.90
10192;DHT22;17580;50.850;4.504;2022-10-13T15:49:47;14.30;99.90
10192;DHT22;17580;50.850;4.504;2022-10-13T15:52:15;14.40;99.90
10192;DHT22;17580;50.850;4.504;2022-10-13T15:54:42;14.30;99.90
10192;DHT22;17580;50.850;4.504;2022-10-13T15:57:09;14.30;99.90
10192;DHT22;17580;50.850;4.504;2022-10-13T15:59:36;14.30;99.90
10192;DHT22;17580;50.850;4.504;2022-10-13T16:02:03;14.30;99.90